Valladolid

latitud = 41° 39' 8''N | longitud = 004° 43' 24''W
690 metros sobre el nivel del mar | datos mensuales

Fecha, hora, temperatura, viento dirección y velocidad, humedad y presión.

  • 21-01-2018 02:00:00 | 5.90°C | Sudoeste |14.00 km/h | 95.00% | 942.60 hPa
  • 21-01-2018 01:00:00 | 6.40°C | Oeste |15.00 km/h | 92.00% | 942.50 hPa
  • 21-01-2018 00:00:00 | 6.20°C | Sudoeste |4.00 km/h | 90.00% | 942.30 hPa
  • 20-01-2018 23:00:00 | 7.00°C | Sudoeste |9.00 km/h | 88.00% | 942.40 hPa
  • 20-01-2018 22:00:00 | 7.30°C | Sudoeste |12.00 km/h | 86.00% | 942.20 hPa
  • 20-01-2018 21:00:00 | 8.00°C | Sudoeste |6.00 km/h | 83.00% | 942.10 hPa
  • 20-01-2018 20:00:00 | 8.90°C | Oeste |11.00 km/h | 79.00% | 941.50 hPa
  • 20-01-2018 19:00:00 | 9.60°C | Sudoeste |6.00 km/h | 73.00% | 940.90 hPa
  • 20-01-2018 18:00:00 | 10.50°C | Oeste |14.00 km/h | 66.00% | 940.50 hPa
  • 20-01-2018 17:00:00 | 12.00°C | Oeste |13.00 km/h | 60.00% | 939.90 hPa
  • 20-01-2018 16:00:00 | 12.50°C | Oeste |14.00 km/h | 56.00% | 939.60 hPa
  • 20-01-2018 15:00:00 | 13.40°C | Oeste |16.00 km/h | 54.00% | 939.30 hPa
  • 20-01-2018 14:00:00 | 12.00°C | Oeste |14.00 km/h | 59.00% | 939.70 hPa
  • 20-01-2018 13:00:00 | 9.70°C | Oeste |13.00 km/h | 65.00% | 940.60 hPa
  • 20-01-2018 12:00:00 | 5.10°C | Sudoeste |10.00 km/h | 84.00% | 940.80 hPa
  • 20-01-2018 11:00:00 | 1.80°C | Sur |6.00 km/h | 95.00% | 940.80 hPa
  • 20-01-2018 10:00:00 | 0.90°C | Sur |4.00 km/h | 100.00% | 940.50 hPa
  • 20-01-2018 09:00:00 | 0.10°C | Sur |8.00 km/h | 100.00% | 940.30 hPa
  • 20-01-2018 08:00:00 | 0.50°C | Sur |5.00 km/h | 100.00% | 940.10 hPa
  • 20-01-2018 07:00:00 | 0.50°C | Sudeste |3.00 km/h | 100.00% | 940.20 hPa
  • 20-01-2018 06:00:00 | 0.30°C | Sudeste |3.00 km/h | 99.00% | 939.80 hPa
  • 20-01-2018 05:00:00 | 0.70°C | Sudeste |4.00 km/h | 99.00% | 939.90 hPa
  • 20-01-2018 04:00:00 | 1.30°C | Sudeste |2.00 km/h | 99.00% | 940.20 hPa
  • 20-01-2018 03:00:00 | 1.50°C | Sudeste |2.00 km/h | 98.00% | 940.10 hPa